createdAt,value
2018-01-27T00:00:10.143Z,102562.80
2018-01-27T00:02:36.288Z,102571.48
2018-01-27T00:05:02.395Z,102569.33
2018-01-27T00:07:28.631Z,102564.50
2018-01-27T00:09:54.806Z,102571.45
2018-01-27T00:12:20.962Z,102577.45
2018-01-27T00:14:47.191Z,102587.94
2018-01-27T00:17:13.423Z,102577.88
2018-01-27T00:19:39.568Z,102570.95
2018-01-27T00:22:05.774Z,102585.78
2018-01-27T00:24:31.867Z,102584.81
2018-01-27T00:26:58.042Z,102587.05
2018-01-27T00:29:24.208Z,102590.48
2018-01-27T00:31:50.325Z,102595.66
2018-01-27T00:34:16.494Z,102589.70
2018-01-27T00:36:42.632Z,102589.70
2018-01-27T00:39:08.790Z,102593.64
2018-01-27T00:41:34.905Z,102594.19
2018-01-27T00:44:01.063Z,102593.88
2018-01-27T00:46:27.167Z,102591.34
2018-01-27T00:48:53.415Z,102595.80
2018-01-27T00:51:19.531Z,102597.97
2018-01-27T00:53:45.669Z,102595.38
2018-01-27T00:56:11.929Z,102599.75
2018-01-27T00:58:38.086Z,102600.64
2018-01-27T01:01:04.203Z,102601.00
2018-01-27T01:03:30.394Z,102595.33
2018-01-27T01:05:56.520Z,102597.97
2018-01-27T01:08:22.723Z,102598.39
2018-01-27T01:10:48.830Z,102588.39
2018-01-27T01:13:14.922Z,102592.74
2018-01-27T01:15:42.187Z,102596.61
2018-01-27T01:18:08.359Z,102595.58
2018-01-27T01:20:34.448Z,102595.95
2018-01-27T01:23:00.598Z,102603.36
2018-01-27T01:25:26.879Z,102610.69
2018-01-27T01:27:52.968Z,102612.94
2018-01-27T01:30:19.139Z,102619.05
2018-01-27T01:32:45.304Z,102622.97
2018-01-27T01:35:18.345Z,102624.27
2018-01-27T01:37:44.491Z,102631.27
2018-01-27T01:40:10.646Z,102630.86
2018-01-27T01:42:42.655Z,102631.23
2018-01-27T01:45:08.856Z,102635.61
2018-01-27T01:47:34.974Z,102624.84
2018-01-27T01:50:01.292Z,102631.84
2018-01-27T01:52:27.454Z,102633.14
2018-01-27T01:54:53.554Z,102635.69
2018-01-27T01:57:19.795Z,102634.48
2018-01-27T01:59:45.972Z,102640.09
2018-01-27T02:02:12.104Z,102640.04
2018-01-27T02:04:38.245Z,102645.75
2018-01-27T02:07:04.343Z,102639.58
2018-01-27T02:09:30.550Z,102644.02
2018-01-27T02:11:56.702Z,102632.74
2018-01-27T02:14:22.840Z,102635.78
2018-01-27T02:16:49.065Z,102635.41
2018-01-27T02:19:15.316Z,102626.78
2018-01-27T02:21:41.460Z,102618.91
2018-01-27T02:24:07.564Z,102618.94
2018-01-27T02:26:33.741Z,102621.52
2018-01-27T02:28:59.956Z,102620.19
2018-01-27T02:31:26.148Z,102629.13
2018-01-27T02:33:52.264Z,102635.12
2018-01-27T02:36:18.393Z,102632.36
2018-01-27T02:38:44.575Z,102631.42
2018-01-27T02:41:10.700Z,102647.35
2018-01-27T02:43:36.817Z,102646.98
2018-01-27T02:46:02.953Z,102647.03
2018-01-27T02:48:29.132Z,102651.92
2018-01-27T02:50:55.236Z,102660.28
2018-01-27T02:53:21.376Z,102672.52
2018-01-27T02:55:47.571Z,102668.63
2018-01-27T02:58:13.682Z,102676.56
2018-01-27T03:00:39.882Z,102673.06
2018-01-27T03:03:05.983Z,102669.17
2018-01-27T03:05:32.129Z,102662.24
2018-01-27T03:07:58.402Z,102662.39
2018-01-27T03:10:24.546Z,102656.31
2018-01-27T03:12:50.636Z,102660.69
2018-01-27T03:15:16.746Z,102660.17
2018-01-27T03:17:42.917Z,102664.86
2018-01-27T03:20:09.101Z,102667.78
2018-01-27T03:22:35.445Z,102672.92
2018-01-27T03:25:01.691Z,102671.52
2018-01-27T03:27:27.790Z,102667.23
2018-01-27T03:29:53.915Z,102672.95
2018-01-27T03:32:20.052Z,102672.09
2018-01-27T03:34:46.198Z,102667.27
2018-01-27T03:37:12.355Z,102659.40
2018-01-27T03:39:38.566Z,102670.25
2018-01-27T03:42:04.679Z,102661.09
2018-01-27T03:44:30.793Z,102656.35
2018-01-27T03:46:56.915Z,102653.71
2018-01-27T03:49:23.154Z,102652.68
2018-01-27T03:51:49.305Z,102666.15
2018-01-27T03:54:15.408Z,102672.66
2018-01-27T03:56:41.544Z,102681.17
2018-01-27T03:59:07.700Z,102689.92
2018-01-27T04:01:34.948Z,102699.89
2018-01-27T04:04:01.365Z,102703.75
2018-01-27T04:06:27.509Z,102702.89
2018-01-27T04:08:53.742Z,102714.66
2018-01-27T04:11:19.930Z,102719.00
2018-01-27T04:13:46.081Z,102723.19
2018-01-27T04:16:12.236Z,102727.14
2018-01-27T04:18:38.484Z,102719.25
2018-01-27T04:21:04.674Z,102735.53
2018-01-27T04:23:30.858Z,102743.40
2018-01-27T04:25:57.101Z,102750.84
2018-01-27T04:28:24.273Z,102747.66
2018-01-27T04:30:50.643Z,102748.80
2018-01-27T04:33:16.803Z,102750.92
2018-01-27T04:35:43.006Z,102755.55
2018-01-27T04:38:09.321Z,102756.04
2018-01-27T04:40:35.550Z,102756.70
2018-01-27T04:43:01.709Z,102764.80
2018-01-27T04:45:27.898Z,102758.66
2018-01-27T04:47:54.175Z,102774.63
2018-01-27T04:50:20.400Z,102773.69
2018-01-27T04:52:46.573Z,102789.23
2018-01-27T04:55:12.759Z,102770.92
2018-01-27T04:57:38.925Z,102768.23
2018-01-27T05:00:05.179Z,102776.66
2018-01-27T05:02:31.357Z,102784.01
2018-01-27T05:04:57.606Z,102787.40
2018-01-27T05:07:23.860Z,102805.64
2018-01-27T05:09:50.113Z,102811.65
2018-01-27T05:12:16.312Z,102821.24
2018-01-27T05:14:42.448Z,102806.42
2018-01-27T05:17:08.724Z,102795.52
2018-01-27T05:19:34.945Z,102800.75
2018-01-27T05:22:01.099Z,102796.24
2018-01-27T05:24:27.247Z,102805.28
2018-01-27T05:26:53.466Z,102798.78
2018-01-27T05:29:19.697Z,102789.55
2018-01-27T05:31:45.857Z,102789.88
2018-01-27T05:34:12.149Z,102792.02
2018-01-27T05:36:38.297Z,102801.98
2018-01-27T05:39:04.512Z,102799.23
2018-01-27T05:41:30.676Z,102803.02
2018-01-27T05:43:56.843Z,102810.75
2018-01-27T05:46:23.056Z,102801.41
2018-01-27T05:48:49.220Z,102798.56
2018-01-27T05:51:15.444Z,102791.45
2018-01-27T05:53:41.605Z,102790.75
2018-01-27T05:56:07.764Z,102791.81
2018-01-27T05:58:34.002Z,102783.53
2018-01-27T06:01:00.212Z,102780.30
2018-01-27T06:03:26.356Z,102790.70
2018-01-27T06:05:52.512Z,102785.80
2018-01-27T06:08:18.750Z,102790.00
2018-01-27T06:10:45.054Z,102787.00
2018-01-27T06:13:11.211Z,102782.06
2018-01-27T06:15:37.403Z,102782.98
2018-01-27T06:18:03.677Z,102779.36
2018-01-27T06:20:42.717Z,102781.02
2018-01-27T06:23:09.323Z,102786.27
2018-01-27T06:25:35.498Z,102788.24
2018-01-27T06:28:01.691Z,102787.36
2018-01-27T06:30:28.687Z,102786.34
2018-01-27T06:32:54.853Z,102786.31
2018-01-27T06:35:21.035Z,102795.05
2018-01-27T06:37:47.245Z,102795.51
2018-01-27T06:40:13.482Z,102807.63
2018-01-27T06:42:39.656Z,102812.88
2018-01-27T06:45:05.863Z,102812.88
2018-01-27T06:47:32.105Z,102806.01
2018-01-27T06:49:58.318Z,102808.34
2018-01-27T06:52:24.481Z,102799.98
2018-01-27T06:54:50.698Z,102806.47
2018-01-27T06:57:16.969Z,102811.16
2018-01-27T06:59:43.238Z,102820.32
2018-01-27T07:02:09.420Z,102828.11
2018-01-27T07:04:35.574Z,102833.22
2018-01-27T07:07:01.796Z,102838.52
2018-01-27T07:09:28.928Z,102850.59
2018-01-27T07:11:55.090Z,102854.61
2018-01-27T07:14:21.336Z,102856.38
2018-01-27T07:16:47.529Z,102852.54
2018-01-27T07:19:13.716Z,102857.44
2018-01-27T07:21:39.904Z,102848.77
2018-01-27T07:24:06.104Z,102857.41
2018-01-27T07:26:32.276Z,102855.60
2018-01-27T07:29:00.404Z,102859.06
2018-01-27T07:31:26.650Z,102867.69
2018-01-27T07:33:52.827Z,102876.33
2018-01-27T07:36:18.971Z,102878.09
2018-01-27T07:38:45.181Z,102871.11
2018-01-27T07:41:11.454Z,102865.86
2018-01-27T07:43:37.637Z,102865.09
2018-01-27T07:46:03.852Z,102864.02
2018-01-27T07:48:30.834Z,102866.67
2018-01-27T07:50:57.045Z,102874.14
2018-01-27T07:53:23.223Z,102872.77
2018-01-27T07:55:49.422Z,102873.23
2018-01-27T07:58:15.565Z,102880.59
2018-01-27T08:00:41.962Z,102893.25
2018-01-27T08:03:08.179Z,102899.41
2018-01-27T08:05:35.275Z,102893.73
2018-01-27T08:08:01.519Z,102898.11
2018-01-27T08:10:27.769Z,102900.27
2018-01-27T08:12:54.024Z,102897.16
2018-01-27T08:15:23.271Z,102895.82
2018-01-27T08:17:49.459Z,102891.91
2018-01-27T08:20:15.663Z,102888.00
2018-01-27T08:22:41.841Z,102884.43
2018-01-27T08:25:08.025Z,102888.06
2018-01-27T08:27:34.302Z,102888.14
2018-01-27T08:30:00.558Z,102890.05
2018-01-27T08:32:26.715Z,102885.25
2018-01-27T08:34:52.907Z,102890.85
2018-01-27T08:37:19.136Z,102896.09
2018-01-27T08:39:45.443Z,102892.92
2018-01-27T08:42:11.605Z,102876.75
2018-01-27T08:44:38.222Z,102869.84
2018-01-27T08:47:04.417Z,102869.07
2018-01-27T08:49:30.649Z,102858.25
2018-01-27T08:51:56.947Z,102848.05
2018-01-27T08:54:23.883Z,102843.99
2018-01-27T08:56:50.056Z,102843.05
2018-01-27T08:59:16.297Z,102850.91
2018-01-27T09:01:42.659Z,102847.03
2018-01-27T09:04:08.904Z,102843.50
2018-01-27T09:06:35.681Z,102848.94
2018-01-27T09:09:01.968Z,102856.84
2018-01-27T09:11:28.141Z,102869.36
2018-01-27T09:13:54.335Z,102868.43
2018-01-27T09:16:20.560Z,102872.66
2018-01-27T09:18:46.753Z,102875.87
2018-01-27T09:21:13.026Z,102876.83
2018-01-27T09:23:39.191Z,102868.61
2018-01-27T09:26:05.355Z,102873.19
2018-01-27T09:28:31.543Z,102875.34
2018-01-27T09:30:57.771Z,102880.91
2018-01-27T09:33:24.011Z,102879.47
2018-01-27T09:35:50.313Z,102884.09
2018-01-27T09:38:16.604Z,102880.21
2018-01-27T09:40:42.853Z,102900.34
2018-01-27T09:43:09.002Z,102906.45
2018-01-27T09:45:35.179Z,102912.90
2018-01-27T09:48:01.414Z,102915.58
2018-01-27T09:50:27.726Z,102915.34
2018-01-27T09:52:53.894Z,102915.58
2018-01-27T09:55:20.067Z,102914.95
2018-01-27T09:57:46.255Z,102916.61
2018-01-27T10:00:12.495Z,102891.07
2018-01-27T10:02:38.695Z,102880.02
2018-01-27T10:05:04.841Z,102881.95
2018-01-27T10:07:31.881Z,102879.77
2018-01-27T10:09:58.055Z,102877.20
2018-01-27T10:12:26.532Z,102874.53
2018-01-27T10:14:52.692Z,102865.84
2018-01-27T10:17:18.919Z,102862.53
2018-01-27T10:19:45.085Z,102853.77
2018-01-27T10:22:11.299Z,102857.58
2018-01-27T10:24:37.508Z,102862.91
2018-01-27T10:27:03.792Z,102860.14
2018-01-27T10:29:30.003Z,102859.91
2018-01-27T10:31:56.239Z,102856.30
2018-01-27T10:34:22.395Z,102861.88
2018-01-27T10:36:48.753Z,102854.64
2018-01-27T10:39:14.943Z,102850.02
2018-01-27T10:41:41.184Z,102854.13
2018-01-27T10:44:07.373Z,102847.93
2018-01-27T10:46:33.671Z,102847.92
2018-01-27T10:48:59.856Z,102845.64
2018-01-27T10:51:26.075Z,102849.77
2018-01-27T10:53:52.266Z,102837.67
2018-01-27T10:56:18.450Z,102844.00
2018-01-27T10:58:44.680Z,102858.41
2018-01-27T11:01:10.924Z,102848.02
2018-01-27T11:03:37.085Z,102842.59
2018-01-27T11:06:03.365Z,102851.15
2018-01-27T11:08:29.989Z,102854.09
2018-01-27T11:10:56.234Z,102845.38
2018-01-27T11:13:22.420Z,102833.47
2018-01-27T11:15:48.602Z,102831.84
2018-01-27T11:18:14.783Z,102829.11
2018-01-27T11:20:41.047Z,102819.59
2018-01-27T11:23:07.220Z,102820.84
2018-01-27T11:25:33.928Z,102829.30
2018-01-27T11:28:00.176Z,102823.84
2018-01-27T11:30:26.385Z,102820.50
2018-01-27T11:32:52.640Z,102823.69
2018-01-27T11:35:18.799Z,102823.42
2018-01-27T11:37:45.046Z,102823.48
2018-01-27T11:40:11.266Z,102828.02
2018-01-27T11:42:37.535Z,102824.80
2018-01-27T11:45:03.793Z,102825.83
2018-01-27T11:47:29.945Z,102816.48
2018-01-27T11:49:56.260Z,102810.98
2018-01-27T11:52:22.548Z,102802.55
2018-01-27T11:54:48.729Z,102795.80
2018-01-27T11:57:14.924Z,102803.98
2018-01-27T11:59:41.172Z,102806.14
2018-01-27T12:02:07.462Z,102793.16
2018-01-27T12:04:33.652Z,102788.84
2018-01-27T12:06:59.901Z,102785.62
2018-01-27T12:09:26.408Z,102785.12
2018-01-27T12:11:52.658Z,102786.16
2018-01-27T12:14:18.801Z,102793.75
2018-01-27T12:16:45.224Z,102796.48
2018-01-27T12:19:11.554Z,102789.68
2018-01-27T12:21:37.725Z,102783.93
2018-01-27T12:24:04.534Z,102782.69
2018-01-27T12:26:30.863Z,102784.89
2018-01-27T12:28:56.966Z,102787.66
2018-01-27T12:31:23.134Z,102788.52
2018-01-27T12:33:49.304Z,102779.58
2018-01-27T12:36:15.430Z,102776.64
2018-01-27T12:38:41.588Z,102769.94
2018-01-27T12:41:07.756Z,102756.13
2018-01-27T12:43:34.686Z,102745.26
2018-01-27T12:46:01.482Z,102747.79
2018-01-27T12:48:27.590Z,102744.21
2018-01-27T12:50:53.788Z,102750.44
2018-01-27T12:53:19.924Z,102747.45
2018-01-27T12:55:46.021Z,102740.08
2018-01-27T12:58:12.126Z,102733.51
2018-01-27T13:00:38.242Z,102723.36
2018-01-27T13:03:04.429Z,102721.07
2018-01-27T13:05:30.549Z,102727.41
2018-01-27T13:07:56.690Z,102730.45
2018-01-27T13:10:22.813Z,102720.29
2018-01-27T13:12:49.109Z,102711.37
2018-01-27T13:15:15.245Z,102705.25
2018-01-27T13:17:41.421Z,102697.71
2018-01-27T13:20:07.642Z,102713.39
2018-01-27T13:22:33.888Z,102703.63
2018-01-27T13:24:59.965Z,102689.73
2018-01-27T13:27:26.104Z,102693.08
2018-01-27T13:29:52.291Z,102691.91
2018-01-27T13:32:18.538Z,102690.14
2018-01-27T13:34:44.708Z,102687.75
2018-01-27T13:37:11.970Z,102683.27
2018-01-27T13:39:38.143Z,102687.56
2018-01-27T13:42:04.350Z,102687.33
2018-01-27T13:44:30.598Z,102673.13
2018-01-27T13:46:56.830Z,102665.08
2018-01-27T13:49:23.101Z,102660.70
2018-01-27T13:51:49.300Z,102663.73
2018-01-27T13:54:15.505Z,102665.87
2018-01-27T13:56:41.695Z,102670.31
2018-01-27T13:59:07.834Z,102682.73
2018-01-27T14:01:34.077Z,102675.34
2018-01-27T14:04:00.209Z,102673.73
2018-01-27T14:06:26.333Z,102660.91
2018-01-27T14:08:52.503Z,102655.56
2018-01-27T14:11:18.691Z,102650.64
2018-01-27T14:13:44.985Z,102652.22
2018-01-27T14:16:11.423Z,102659.04
2018-01-27T14:18:37.716Z,102656.74
2018-01-27T14:21:04.032Z,102671.05
2018-01-27T14:23:30.426Z,102678.38
2018-01-27T14:25:56.584Z,102678.78
2018-01-27T14:28:22.708Z,102670.52
2018-01-27T14:30:48.871Z,102670.09
2018-01-27T14:33:15.028Z,102666.53
2018-01-27T14:35:42.804Z,102660.47
2018-01-27T14:38:09.136Z,102673.59
2018-01-27T14:40:35.357Z,102678.83
2018-01-27T14:43:01.645Z,102689.72
2018-01-27T14:45:29.323Z,102697.67
2018-01-27T14:47:55.696Z,102693.70
2018-01-27T14:50:21.803Z,102687.56
2018-01-27T14:52:47.972Z,102677.95
2018-01-27T14:55:14.108Z,102680.58
2018-01-27T14:57:40.321Z,102679.73
2018-01-27T15:00:06.506Z,102677.11
2018-01-27T15:02:32.669Z,102676.29
2018-01-27T15:04:58.761Z,102678.18
2018-01-27T15:07:25.002Z,102668.64
2018-01-27T15:09:51.158Z,102667.70
2018-01-27T15:12:17.313Z,102657.60
2018-01-27T15:14:43.481Z,102658.51
2018-01-27T15:17:09.614Z,102645.31
2018-01-27T15:19:35.733Z,102649.59
2018-01-27T15:22:01.920Z,102641.35
2018-01-27T15:24:28.049Z,102637.72
2018-01-27T15:26:54.183Z,102639.03
2018-01-27T15:29:20.333Z,102644.95
2018-01-27T15:31:46.521Z,102638.80
2018-01-27T15:34:12.709Z,102650.23
2018-01-27T15:36:38.880Z,102644.07
2018-01-27T15:39:05.033Z,102649.31
2018-01-27T15:41:31.176Z,102647.92
2018-01-27T15:43:57.386Z,102641.59
2018-01-27T15:46:23.579Z,102648.52
2018-01-27T15:48:49.675Z,102639.38
2018-01-27T15:51:15.792Z,102631.05
2018-01-27T15:53:41.954Z,102633.18
2018-01-27T15:56:08.076Z,102622.66
2018-01-27T15:58:34.245Z,102611.67
2018-01-27T16:01:00.394Z,102601.12
2018-01-27T16:03:26.588Z,102606.34
2018-01-27T16:05:52.705Z,102600.64
2018-01-27T16:08:18.866Z,102609.81
2018-01-27T16:10:45.020Z,102620.20
2018-01-27T16:13:11.179Z,102618.92
2018-01-27T16:15:37.378Z,102623.69
2018-01-27T16:18:03.526Z,102620.53
2018-01-27T16:20:29.666Z,102616.68
2018-01-27T16:22:55.866Z,102615.80
2018-01-27T16:25:22.004Z,102614.52
2018-01-27T16:27:48.140Z,102606.53
2018-01-27T16:30:14.298Z,102603.01
2018-01-27T16:32:40.490Z,102596.48
2018-01-27T16:35:06.616Z,102593.77
2018-01-27T16:37:35.248Z,102603.20
2018-01-27T16:40:01.610Z,102598.38
2018-01-27T16:42:28.103Z,102602.19
2018-01-27T16:44:54.315Z,102610.82
2018-01-27T16:47:20.816Z,102612.13
2018-01-27T16:49:48.761Z,102617.68
2018-01-27T16:52:17.069Z,102619.38
2018-01-27T16:54:44.498Z,102616.65
2018-01-27T16:57:13.052Z,102613.55
2018-01-27T16:59:39.774Z,102601.64
2018-01-27T17:02:07.263Z,102597.07
2018-01-27T17:04:33.535Z,102590.80
2018-01-27T17:06:59.996Z,102584.52
2018-01-27T17:09:27.031Z,102577.12
2018-01-27T17:11:53.905Z,102589.59
2018-01-27T17:14:20.957Z,102578.17
2018-01-27T17:16:48.341Z,102580.73
2018-01-27T17:19:14.554Z,102581.50
2018-01-27T17:21:40.759Z,102577.87
2018-01-27T17:24:07.010Z,102571.84
2018-01-27T17:26:33.954Z,102574.91
2018-01-27T17:29:02.096Z,102580.99
2018-01-27T17:31:31.372Z,102570.42
2018-01-27T17:33:57.622Z,102581.73
2018-01-27T17:36:24.744Z,102577.76
2018-01-27T17:38:52.241Z,102566.39
2018-01-27T17:41:18.536Z,102580.83
2018-01-27T17:43:44.758Z,102564.25
2018-01-27T17:46:11.225Z,102567.78
2018-01-27T17:48:37.519Z,102566.45
2018-01-27T17:51:03.808Z,102551.60
2018-01-27T17:53:30.086Z,102557.23
2018-01-27T17:55:56.360Z,102552.03
2018-01-27T17:58:22.650Z,102551.06
2018-01-27T18:00:49.165Z,102564.12
2018-01-27T18:03:15.504Z,102559.73
2018-01-27T18:05:41.806Z,102561.45
2018-01-27T18:08:08.133Z,102552.32
2018-01-27T18:10:34.454Z,102554.51
2018-01-27T18:13:00.660Z,102562.76
2018-01-27T18:15:26.826Z,102555.29
2018-01-27T18:17:53.109Z,102555.60
2018-01-27T18:20:19.338Z,102569.50
2018-01-27T18:22:45.565Z,102566.70
2018-01-27T18:25:11.793Z,102561.41
2018-01-27T18:27:37.999Z,102556.88
2018-01-27T18:30:04.305Z,102556.81
2018-01-27T18:32:30.473Z,102551.84
2018-01-27T18:34:56.695Z,102549.06
2018-01-27T18:37:22.983Z,102560.31
2018-01-27T18:39:49.200Z,102564.64
2018-01-27T18:42:15.389Z,102550.58
2018-01-27T18:44:41.618Z,102553.08
2018-01-27T18:47:07.834Z,102547.34
2018-01-27T18:49:34.020Z,102548.28
2018-01-27T18:52:00.331Z,102539.08
2018-01-27T18:54:26.548Z,102532.45
2018-01-27T18:56:52.694Z,102536.31
2018-01-27T18:59:18.886Z,102531.66
2018-01-27T19:01:45.123Z,102527.63
2018-01-27T19:04:11.337Z,102522.94
2018-01-27T19:06:37.618Z,102524.61
2018-01-27T19:09:03.923Z,102518.94
2018-01-27T19:11:30.084Z,102519.89
2018-01-27T19:13:56.363Z,102515.04
2018-01-27T19:16:22.577Z,102505.92
2018-01-27T19:18:48.756Z,102502.88
2018-01-27T19:21:15.006Z,102504.29
2018-01-27T19:23:42.178Z,102499.18
2018-01-27T19:26:08.402Z,102499.09
2018-01-27T19:28:34.656Z,102494.78
2018-01-27T19:31:00.862Z,102500.39
2018-01-27T19:33:27.180Z,102510.97
2018-01-27T19:35:53.411Z,102511.91
2018-01-27T19:38:19.662Z,102516.81
2018-01-27T19:40:45.927Z,102519.16
2018-01-27T19:43:12.296Z,102528.83
2018-01-27T19:45:38.544Z,102516.77
2018-01-27T19:48:04.793Z,102522.50
2018-01-27T19:50:31.031Z,102528.30
2018-01-27T19:52:57.207Z,102520.56
2018-01-27T19:55:23.487Z,102515.36
2018-01-27T19:57:49.698Z,102511.91
2018-01-27T20:00:15.868Z,102511.12
2018-01-27T20:02:42.020Z,102513.38
2018-01-27T20:05:08.285Z,102509.06
2018-01-27T20:07:34.558Z,102522.27
2018-01-27T20:10:00.752Z,102517.55
2018-01-27T20:12:26.975Z,102522.86
2018-01-27T20:14:53.216Z,102532.52
2018-01-27T20:17:19.573Z,102533.45
2018-01-27T20:19:45.867Z,102526.14
2018-01-27T20:22:12.077Z,102529.27
2018-01-27T20:24:38.366Z,102516.74
2018-01-27T20:27:04.528Z,102528.14
2018-01-27T20:29:30.724Z,102523.39
2018-01-27T20:31:56.936Z,102519.56
2018-01-27T20:34:23.170Z,102519.27
2018-01-27T20:36:49.346Z,102522.84
2018-01-27T20:39:16.294Z,102527.35
2018-01-27T20:41:42.514Z,102534.74
2018-01-27T20:44:08.801Z,102543.59
2018-01-27T20:46:35.006Z,102544.06
2018-01-27T20:49:01.185Z,102545.84
2018-01-27T20:51:27.500Z,102535.96
2018-01-27T20:53:53.792Z,102532.20
2018-01-27T20:56:20.061Z,102527.55
2018-01-27T20:58:47.100Z,102527.23
2018-01-27T21:01:13.354Z,102527.74
2018-01-27T21:03:39.582Z,102524.77
2018-01-27T21:06:06.886Z,102521.39
2018-01-27T21:08:34.191Z,102532.83
2018-01-27T21:11:00.432Z,102535.04
2018-01-27T21:13:26.640Z,102538.57
2018-01-27T21:15:53.844Z,102530.66
2018-01-27T21:18:20.021Z,102546.45
2018-01-27T21:20:46.259Z,102554.77
2018-01-27T21:23:12.573Z,102554.35
2018-01-27T21:25:38.899Z,102556.11
2018-01-27T21:28:05.165Z,102551.75
2018-01-27T21:30:31.430Z,102551.75
2018-01-27T21:32:57.815Z,102549.94
2018-01-27T21:35:24.040Z,102533.70
2018-01-27T21:37:50.346Z,102531.06
2018-01-27T21:40:16.544Z,102532.39
2018-01-27T21:42:42.785Z,102532.84
2018-01-27T21:45:09.091Z,102524.95
2018-01-27T21:47:35.287Z,102529.27
2018-01-27T21:50:01.448Z,102527.59
2018-01-27T21:52:27.660Z,102524.09
2018-01-27T21:54:53.920Z,102518.35
2018-01-27T21:57:20.097Z,102521.92
2018-01-27T21:59:46.339Z,102513.64
2018-01-27T22:02:12.543Z,102511.52
2018-01-27T22:04:38.775Z,102507.20
2018-01-27T22:07:05.014Z,102521.09
2018-01-27T22:09:31.207Z,102509.36
2018-01-27T22:11:57.488Z,102520.73
2018-01-27T22:14:23.710Z,102528.17
2018-01-27T22:16:49.874Z,102529.07
2018-01-27T22:19:16.030Z,102531.71
2018-01-27T22:21:42.269Z,102532.17
2018-01-27T22:24:08.506Z,102521.23
2018-01-27T22:26:34.714Z,102537.75
2018-01-27T22:29:00.936Z,102530.33
2018-01-27T22:31:27.107Z,102535.61
2018-01-27T22:33:53.332Z,102531.66
2018-01-27T22:36:19.523Z,102528.59
2018-01-27T22:38:45.774Z,102537.75
2018-01-27T22:41:11.938Z,102537.78
2018-01-27T22:43:38.163Z,102547.83
2018-01-27T22:46:04.353Z,102544.32
2018-01-27T22:48:30.590Z,102543.55
2018-01-27T22:50:57.523Z,102537.91
2018-01-27T22:53:23.748Z,102545.86
2018-01-27T22:55:49.996Z,102556.84
2018-01-27T22:58:16.264Z,102550.77
2018-01-27T23:00:48.391Z,102564.80
2018-01-27T23:03:15.644Z,102561.77
2018-01-27T23:05:41.786Z,102560.09
2018-01-27T23:08:08.067Z,102562.83
2018-01-27T23:10:34.275Z,102568.11
2018-01-27T23:13:00.529Z,102577.33
2018-01-27T23:15:26.845Z,102576.95
2018-01-27T23:17:53.091Z,102584.53
2018-01-27T23:20:19.283Z,102581.12
2018-01-27T23:22:45.479Z,102590.33
2018-01-27T23:25:11.693Z,102583.80
2018-01-27T23:27:37.932Z,102591.36
2018-01-27T23:30:04.270Z,102586.59
2018-01-27T23:32:30.481Z,102589.80
2018-01-27T23:34:56.651Z,102587.64
2018-01-27T23:37:22.882Z,102583.30
2018-01-27T23:39:49.109Z,102583.85
2018-01-27T23:42:15.344Z,102588.74
2018-01-27T23:44:41.563Z,102594.93
2018-01-27T23:47:08.707Z,102596.34
2018-01-27T23:49:34.870Z,102590.36
2018-01-27T23:52:01.047Z,102591.80
2018-01-27T23:54:27.225Z,102595.41
2018-01-27T23:56:53.579Z,102594.20
2018-01-27T23:59:19.747Z,102592.94
